Terminal Aerodrome Forecast
Issued by NWS

Home | Current Version | Previous Version | Text Only | Print | Product List | Glossary Off
Versions: 1 2 3 4 5 6 7 8 9 10 11 12

000
FTUS43 KICT 110523
TAFRSL
TAF
KRSL 110523Z 1106/1206 24010KT P6SM SKC
     FM111200 29015G21KT P6SM SCT250
     FM111600 33024G33KT P6SM SCT150
     FM120100 34014KT P6SM SCT040=

USA.gov is the U.S. government's official web portal to all federal, state and local government web resources and services.